Time;durP1;ratioP1;P1;durP2;ratioP2;P2;SDS_P1;SDS_P2;PMS_P1;PMS_P2;Temp;Humidity;BMP_temperature;BMP_pressure;BME280_temperature;BME280_humidity;BME280_pressure;Samples;Min_cycle;Max_cycle;Signal;HPM_P1;HPM_P2
2022/02/26 00:00:05;;;;;;;0.20;0.20;;;;;;;;;;5084570;28;20377;-70
2022/02/26 00:02:31;;;;;;;0.13;0.13;;;;;;;;;;5084099;28;20274;-70
2022/02/26 00:04:57;;;;;;;0.20;0.20;;;;;;;;;;5084367;28;20212;-71
2022/02/26 00:07:23;;;;;;;2.77;2.63;;;;;;;;;;5084676;28;20232;-71
2022/02/26 00:09:50;;;;;;;0.10;0.10;;;;;;;;;;5083980;28;20272;-70
2022/02/26 00:12:16;;;;;;;0.10;0.10;;;;;;;;;;5083689;28;20313;-71
2022/02/26 00:14:42;;;;;;;0.10;0.10;;;;;;;;;;5084275;28;20237;-71
2022/02/26 00:17:10;;;;;;;0.10;0.10;;;;;;;;;;5084178;28;20208;-72
2022/02/26 00:19:36;;;;;;;0.83;0.83;;;;;;;;;;5084187;28;20330;-70
2022/02/26 00:22:04;;;;;;;0.10;0.10;;;;;;;;;;5083896;28;20218;-72
2022/02/26 00:24:31;;;;;;;0.10;0.10;;;;;;;;;;5083780;28;20213;-70
2022/02/26 00:26:57;;;;;;;0.10;0.10;;;;;;;;;;5083655;28;20209;-70
2022/02/26 00:29:24;;;;;;;0.17;0.17;;;;;;;;;;5083625;28;20250;-71
2022/02/26 00:31:50;;;;;;;0.20;0.20;;;;;;;;;;5083806;28;20205;-72
2022/02/26 00:34:17;;;;;;;0.10;0.10;;;;;;;;;;5083691;28;20272;-69
2022/02/26 00:36:44;;;;;;;0.13;0.13;;;;;;;;;;5083766;28;20220;-70
2022/02/26 00:39:11;;;;;;;2.10;2.00;;;;;;;;;;5083671;28;20504;-72
2022/02/26 00:41:39;;;;;;;0.20;0.20;;;;;;;;;;5083354;28;20225;-71
2022/02/26 00:44:06;;;;;;;0.20;0.20;;;;;;;;;;5083567;28;20254;-69
2022/02/26 00:46:32;;;;;;;0.20;0.20;;;;;;;;;;5083530;28;20209;-70
2022/02/26 00:51:43;;;;;;;0.20;0.20;;;;;;;;;;5083237;28;20204;-71
2022/02/26 00:54:09;;;;;;;0.20;0.20;;;;;;;;;;5083317;28;20354;-70
2022/02/26 00:56:35;;;;;;;0.10;0.10;;;;;;;;;;5083281;28;20247;-70
2022/02/26 00:59:02;;;;;;;0.10;0.10;;;;;;;;;;5083264;28;20205;-71
2022/02/26 01:01:28;;;;;;;0.13;0.13;;;;;;;;;;5083210;28;20384;-72
2022/02/26 01:03:54;;;;;;;0.10;0.10;;;;;;;;;;5082098;28;20225;-70
2022/02/26 01:06:22;;;;;;;0.10;0.10;;;;;;;;;;5082949;28;20263;-72
2022/02/26 01:08:51;;;;;;;0.10;0.10;;;;;;;;;;5082778;28;20220;-71
2022/02/26 01:11:17;;;;;;;0.10;0.10;;;;;;;;;;5082975;28;20207;-72
2022/02/26 01:13:43;;;;;;;0.10;0.10;;;;;;;;;;5082704;28;20224;-71
2022/02/26 01:16:10;;;;;;;0.10;0.10;;;;;;;;;;5082774;28;20208;-70
2022/02/26 01:18:36;;;;;;;0.10;0.10;;;;;;;;;;5082819;28;20213;-70
2022/02/26 01:21:02;;;;;;;0.10;0.10;;;;;;;;;;5082759;28;20513;-70
2022/02/26 01:23:28;;;;;;;0.10;0.10;;;;;;;;;;5082955;28;20491;-71
2022/02/26 01:25:56;;;;;;;0.10;0.10;;;;;;;;;;5082480;28;20258;-70
2022/02/26 01:28:22;;;;;;;0.20;0.20;;;;;;;;;;5082953;28;20559;-70
2022/02/26 01:30:49;;;;;;;0.10;0.10;;;;;;;;;;5082811;28;20246;-71
2022/02/26 01:33:15;;;;;;;0.13;0.13;;;;;;;;;;5083020;28;20325;-71
2022/02/26 01:35:41;;;;;;;0.10;0.10;;;;;;;;;;5082487;28;20225;-72
2022/02/26 01:38:07;;;;;;;0.20;0.20;;;;;;;;;;5082986;28;20232;-70
2022/02/26 01:40:34;;;;;;;0.10;0.10;;;;;;;;;;5082650;28;20499;-71
2022/02/26 01:43:01;;;;;;;0.10;0.10;;;;;;;;;;5082700;28;20243;-69
2022/02/26 01:45:27;;;;;;;0.20;0.20;;;;;;;;;;5082339;28;20235;-72
2022/02/26 01:47:54;;;;;;;0.10;0.10;;;;;;;;;;5082828;28;20208;-69
2022/02/26 01:50:20;;;;;;;0.20;0.20;;;;;;;;;;5082675;28;20466;-70
2022/02/26 01:52:47;;;;;;;0.40;0.40;;;;;;;;;;5082574;28;20243;-71
2022/02/26 01:55:13;;;;;;;0.27;0.27;;;;;;;;;;5082402;28;20563;-73
2022/02/26 01:57:39;;;;;;;0.20;0.20;;;;;;;;;;5082314;28;20326;-71
2022/02/26 02:00:09;;;;;;;0.10;0.10;;;;;;;;;;5082597;28;20376;-70
2022/02/26 02:02:35;;;;;;;0.10;0.10;;;;;;;;;;5082553;28;20252;-72
2022/02/26 02:05:02;;;;;;;0.20;0.20;;;;;;;;;;5082143;28;20209;-71
2022/02/26 02:07:28;;;;;;;0.10;0.10;;;;;;;;;;5082105;28;20218;-73
2022/02/26 02:09:54;;;;;;;5.90;2.20;;;;;;;;;;5082440;28;20391;-70
2022/02/26 02:12:20;;;;;;;0.10;0.10;;;;;;;;;;5082561;28;20376;-72
2022/02/26 02:14:47;;;;;;;0.10;0.10;;;;;;;;;;5082281;28;20548;-71
2022/02/26 02:17:16;;;;;;;0.10;0.10;;;;;;;;;;5086279;28;20425;-72
2022/02/26 02:19:42;;;;;;;0.10;0.10;;;;;;;;;;5086337;28;20210;-71
2022/02/26 02:22:10;;;;;;;0.20;0.20;;;;;;;;;;5086413;28;20567;-70
2022/02/26 02:24:36;;;;;;;0.10;0.10;;;;;;;;;;5086097;28;20285;-71
2022/02/26 02:27:03;;;;;;;0.20;0.20;;;;;;;;;;5086065;28;20209;-72
2022/02/26 02:29:29;;;;;;;0.20;0.20;;;;;;;;;;5085915;28;20297;-70
2022/02/26 02:31:59;;;;;;;0.10;0.10;;;;;;;;;;5085867;28;20233;-70
2022/02/26 02:34:25;;;;;;;0.17;0.17;;;;;;;;;;5085729;28;20253;-70
2022/02/26 02:36:51;;;;;;;0.20;0.20;;;;;;;;;;5086044;28;20232;-69
2022/02/26 02:39:19;;;;;;;0.10;0.10;;;;;;;;;;5085706;28;20218;-70
2022/02/26 02:41:45;;;;;;;0.10;0.10;;;;;;;;;;5085822;28;20252;-71
2022/02/26 02:44:13;;;;;;;0.20;0.20;;;;;;;;;;5085751;28;20214;-71
2022/02/26 02:46:40;;;;;;;0.20;0.20;;;;;;;;;;5085609;28;20210;-69
2022/02/26 02:49:06;;;;;;;0.10;0.10;;;;;;;;;;5085850;28;20207;-70
2022/02/26 02:51:32;;;;;;;0.20;0.20;;;;;;;;;;5085606;28;20214;-71
2022/02/26 02:53:58;;;;;;;0.10;0.10;;;;;;;;;;5085628;28;20439;-71
2022/02/26 02:56:26;;;;;;;0.20;0.20;;;;;;;;;;5085480;28;20382;-72
2022/02/26 02:58:52;;;;;;;0.20;0.20;;;;;;;;;;5085543;28;20208;-70
2022/02/26 03:01:19;;;;;;;0.20;0.20;;;;;;;;;;5085552;28;20251;-72
2022/02/26 03:03:45;;;;;;;0.10;0.10;;;;;;;;;;5085498;28;20202;-70
2022/02/26 03:06:11;;;;;;;0.10;0.10;;;;;;;;;;5085477;28;20604;-70
2022/02/26 03:08:37;;;;;;;0.10;0.10;;;;;;;;;;5085478;28;20213;-70
2022/02/26 03:11:04;;;;;;;0.10;0.10;;;;;;;;;;5085314;28;20503;-70
2022/02/26 03:13:33;;;;;;;0.10;0.10;;;;;;;;;;5084958;28;20222;-71
2022/02/26 03:15:59;;;;;;;0.10;0.10;;;;;;;;;;5084713;28;20229;-71
2022/02/26 03:18:26;;;;;;;0.20;0.20;;;;;;;;;;5085363;28;20207;-74
2022/02/26 03:20:52;;;;;;;0.10;0.10;;;;;;;;;;5085150;28;20205;-70
2022/02/26 03:23:19;;;;;;;0.10;0.10;;;;;;;;;;5085341;28;20214;-70
2022/02/26 03:25:45;;;;;;;0.20;0.20;;;;;;;;;;5084820;28;20212;-72
2022/02/26 03:28:12;;;;;;;0.10;0.10;;;;;;;;;;5084357;28;20204;-71
2022/02/26 03:30:40;;;;;;;0.20;0.20;;;;;;;;;;5084745;28;20210;-70
2022/02/26 03:33:06;;;;;;;0.10;0.10;;;;;;;;;;5085127;28;20244;-71
2022/02/26 03:35:33;;;;;;;0.10;0.10;;;;;;;;;;5084864;28;20445;-71
2022/02/26 03:37:59;;;;;;;0.20;0.20;;;;;;;;;;5085113;28;20214;-72
2022/02/26 03:40:26;;;;;;;0.20;0.20;;;;;;;;;;5084858;28;20211;-72
2022/02/26 03:42:52;;;;;;;0.20;0.20;;;;;;;;;;5084851;28;20292;-71
2022/02/26 03:45:18;;;;;;;0.10;0.10;;;;;;;;;;5084806;28;20209;-71
2022/02/26 03:47:49;;;;;;;0.20;0.20;;;;;;;;;;5084947;28;20235;-72
2022/02/26 03:50:15;;;;;;;0.20;0.20;;;;;;;;;;5084631;28;20240;-71
2022/02/26 03:52:41;;;;;;;0.10;0.10;;;;;;;;;;5084659;28;20500;-71
2022/02/26 03:55:08;;;;;;;0.10;0.10;;;;;;;;;;5084350;28;20422;-73
2022/02/26 03:57:35;;;;;;;0.20;0.20;;;;;;;;;;5084682;28;20263;-71
2022/02/26 04:00:01;;;;;;;0.10;0.10;;;;;;;;;;5084430;28;20206;-72
2022/02/26 04:02:28;;;;;;;0.10;0.10;;;;;;;;;;5084512;28;20424;-72
2022/02/26 04:04:56;;;;;;;0.10;0.10;;;;;;;;;;5084336;28;20201;-71
2022/02/26 04:07:22;;;;;;;0.10;0.10;;;;;;;;;;5084479;28;20210;-70
2022/02/26 04:09:48;;;;;;;0.13;0.13;;;;;;;;;;5084334;28;20205;-70
2022/02/26 04:12:16;;;;;;;0.20;0.20;;;;;;;;;;5083977;28;20205;-71
2022/02/26 04:14:43;;;;;;;0.17;0.17;;;;;;;;;;5083686;28;20250;-70
2022/02/26 04:17:09;;;;;;;0.20;0.20;;;;;;;;;;5084170;28;20209;-70
2022/02/26 04:19:37;;;;;;;0.10;0.10;;;;;;;;;;5084026;28;20397;-70
2022/02/26 04:22:07;;;;;;;0.20;0.20;;;;;;;;;;5083852;28;20205;-70
2022/02/26 04:24:34;;;;;;;0.50;0.50;;;;;;;;;;5083847;28;20292;-71
2022/02/26 04:27:00;;;;;;;0.20;0.20;;;;;;;;;;5083953;28;20217;-69
2022/02/26 04:29:26;;;;;;;0.10;0.10;;;;;;;;;;5083879;28;20562;-70
2022/02/26 04:31:52;;;;;;;0.10;0.10;;;;;;;;;;5083691;28;20323;-70
2022/02/26 04:34:18;;;;;;;0.20;0.20;;;;;;;;;;5083454;28;20264;-71
2022/02/26 04:36:45;;;;;;;0.20;0.20;;;;;;;;;;5083646;28;20245;-71
2022/02/26 04:39:12;;;;;;;0.20;0.20;;;;;;;;;;5083612;28;20241;-71
2022/02/26 04:41:39;;;;;;;0.10;0.10;;;;;;;;;;5083277;28;20233;-72
2022/02/26 04:44:05;;;;;;;0.10;0.10;;;;;;;;;;5083416;28;20202;-71
2022/02/26 04:46:31;;;;;;;0.10;0.10;;;;;;;;;;5083635;28;20217;-71
2022/02/26 04:48:58;;;;;;;0.10;0.10;;;;;;;;;;5083547;28;20205;-71
2022/02/26 04:51:24;;;;;;;0.10;0.10;;;;;;;;;;5083359;28;20223;-71
2022/02/26 04:53:50;;;;;;;0.10;0.10;;;;;;;;;;5083321;28;20284;-69
2022/02/26 04:56:18;;;;;;;0.20;0.20;;;;;;;;;;5083318;28;20378;-70
2022/02/26 04:58:44;;;;;;;0.20;0.20;;;;;;;;;;5083240;28;20433;-70
2022/02/26 05:01:10;;;;;;;0.10;0.10;;;;;;;;;;5082826;28;20210;-69
2022/02/26 05:03:36;;;;;;;0.20;0.20;;;;;;;;;;5083268;28;20278;-71
2022/02/26 05:06:03;;;;;;;0.20;0.20;;;;;;;;;;5082939;28;20212;-70
2022/02/26 05:08:29;;;;;;;0.10;0.10;;;;;;;;;;5083189;28;20274;-71
2022/02/26 05:11:05;;;;;;;0.10;0.10;;;;;;;;;;5083191;28;20433;-70
2022/02/26 05:13:33;;;;;;;0.20;0.20;;;;;;;;;;5083044;28;20194;-71
2022/02/26 05:15:59;;;;;;;0.20;0.20;;;;;;;;;;5082708;28;20205;-71
2022/02/26 05:18:25;;;;;;;0.10;0.10;;;;;;;;;;5082762;28;20234;-70
2022/02/26 05:20:52;;;;;;;0.10;0.10;;;;;;;;;;5082723;28;20204;-70
2022/02/26 05:23:18;;;;;;;0.10;0.10;;;;;;;;;;5082995;28;20444;-72
2022/02/26 05:25:45;;;;;;;0.20;0.20;;;;;;;;;;5082369;28;20208;-72
2022/02/26 05:28:11;;;;;;;0.10;0.10;;;;;;;;;;5082942;28;20224;-71
2022/02/26 05:30:39;;;;;;;0.20;0.20;;;;;;;;;;5082790;28;20206;-70
2022/02/26 05:33:05;;;;;;;0.10;0.10;;;;;;;;;;5082746;28;20431;-72
2022/02/26 05:35:31;;;;;;;0.20;0.20;;;;;;;;;;5082678;28;20294;-70
2022/02/26 05:37:58;;;;;;;0.20;0.20;;;;;;;;;;5082762;28;20205;-70
2022/02/26 05:40:24;;;;;;;0.20;0.20;;;;;;;;;;5082207;28;20220;-70
2022/02/26 05:42:50;;;;;;;0.10;0.10;;;;;;;;;;5082865;28;20470;-71
2022/02/26 05:45:17;;;;;;;0.10;0.10;;;;;;;;;;5082098;28;20357;-70
2022/02/26 05:47:45;;;;;;;0.20;0.20;;;;;;;;;;5082513;28;20213;-70
2022/02/26 05:50:13;;;;;;;0.10;0.10;;;;;;;;;;5081227;28;20292;-70
2022/02/26 05:52:39;;;;;;;0.20;0.20;;;;;;;;;;5082542;28;20506;-71
2022/02/26 05:55:06;;;;;;;0.10;0.10;;;;;;;;;;5082242;28;20224;-70
2022/02/26 05:57:32;;;;;;;0.10;0.10;;;;;;;;;;5082447;28;20212;-71
2022/02/26 05:59:58;;;;;;;0.20;0.20;;;;;;;;;;5082221;28;20229;-70
2022/02/26 06:02:24;;;;;;;0.20;0.20;;;;;;;;;;5082456;28;20228;-70
2022/02/26 06:05:00;;;;;;;0.20;0.20;;;;;;;;;;5082474;28;20206;-72
2022/02/26 06:07:29;;;;;;;0.17;0.17;;;;;;;;;;5082360;28;20513;-70
2022/02/26 06:09:56;;;;;;;0.13;0.13;;;;;;;;;;5082417;28;20514;-70
2022/02/26 06:12:22;;;;;;;0.10;0.10;;;;;;;;;;5082397;28;20522;-70
2022/02/26 06:14:48;;;;;;;0.20;0.20;;;;;;;;;;5082366;28;20225;-70
2022/02/26 06:17:16;;;;;;;0.10;0.10;;;;;;;;;;5081914;28;20211;-70
2022/02/26 06:19:42;;;;;;;0.10;0.10;;;;;;;;;;5082358;28;20541;-69
2022/02/26 06:22:10;;;;;;;0.10;0.10;;;;;;;;;;5082355;28;20213;-70
2022/02/26 06:24:36;;;;;;;0.10;0.10;;;;;;;;;;5082204;28;20214;-71
2022/02/26 06:27:03;;;;;;;0.10;0.10;;;;;;;;;;5082305;28;20216;-70
2022/02/26 06:29:29;;;;;;;0.20;0.20;;;;;;;;;;5081856;28;20374;-70
2022/02/26 06:31:55;;;;;;;0.20;0.20;;;;;;;;;;5082280;28;20494;-71
2022/02/26 06:34:21;;;;;;;0.10;0.10;;;;;;;;;;5081819;28;20247;-71
2022/02/26 06:36:48;;;;;;;0.20;0.20;;;;;;;;;;5082216;28;20248;-71
2022/02/26 06:39:15;;;;;;;0.20;0.20;;;;;;;;;;5082180;28;20502;-70
2022/02/26 06:41:41;;;;;;;0.20;0.20;;;;;;;;;;5081579;28;20225;-70
2022/02/26 06:44:08;;;;;;;0.20;0.20;;;;;;;;;;5081886;28;20244;-69
2022/02/26 06:46:35;;;;;;;0.10;0.10;;;;;;;;;;5082281;28;20210;-71
2022/02/26 06:49:01;;;;;;;0.10;0.10;;;;;;;;;;5081805;28;20237;-70
2022/02/26 06:51:27;;;;;;;0.20;0.20;;;;;;;;;;5081892;28;20207;-71
2022/02/26 06:53:53;;;;;;;0.10;0.10;;;;;;;;;;5082103;28;20208;-69
2022/02/26 06:56:21;;;;;;;0.10;0.10;;;;;;;;;;5081839;28;20288;-71
2022/02/26 06:58:47;;;;;;;0.10;0.10;;;;;;;;;;5081669;28;20203;-72
2022/02/26 07:01:13;;;;;;;0.20;0.20;;;;;;;;;;5081939;28;20230;-70
2022/02/26 07:03:39;;;;;;;0.20;0.20;;;;;;;;;;5084493;28;20253;-71
2022/02/26 07:06:06;;;;;;;0.13;0.13;;;;;;;;;;5085375;28;20431;-71
2022/02/26 07:08:32;;;;;;;0.10;0.10;;;;;;;;;;5085231;28;20210;-71
2022/02/26 07:10:59;;;;;;;0.10;0.10;;;;;;;;;;5085300;28;20507;-70
2022/02/26 07:13:26;;;;;;;0.10;0.10;;;;;;;;;;5085237;28;20206;-72
2022/02/26 07:15:53;;;;;;;0.10;0.10;;;;;;;;;;5084841;28;20225;-69
2022/02/26 07:18:19;;;;;;;0.17;0.17;;;;;;;;;;5085292;28;20559;-71
2022/02/26 07:20:45;;;;;;;0.10;0.10;;;;;;;;;;5085260;28;20452;-71
2022/02/26 07:23:11;;;;;;;0.20;0.20;;;;;;;;;;5085164;28;20502;-71
2022/02/26 07:25:42;;;;;;;0.20;0.20;;;;;;;;;;5084613;28;20247;-71
2022/02/26 07:28:08;;;;;;;0.20;0.20;;;;;;;;;;5084976;28;20206;-70
2022/02/26 07:30:38;;;;;;;0.10;0.10;;;;;;;;;;5085019;28;20205;-71
2022/02/26 07:33:04;;;;;;;0.20;0.20;;;;;;;;;;5084876;28;20201;-71
2022/02/26 07:35:31;;;;;;;0.10;0.10;;;;;;;;;;5084597;28;20264;-71
2022/02/26 07:37:57;;;;;;;0.20;0.20;;;;;;;;;;5084942;28;20210;-70
2022/02/26 07:40:23;;;;;;;0.10;0.10;;;;;;;;;;5084585;28;20218;-71
2022/02/26 07:42:49;;;;;;;0.13;0.13;;;;;;;;;;5084823;28;20279;-71
2022/02/26 07:45:16;;;;;;;0.20;0.20;;;;;;;;;;5084546;28;20203;-70
2022/02/26 07:47:44;;;;;;;0.10;0.10;;;;;;;;;;5084760;28;20209;-73
2022/02/26 07:50:10;;;;;;;3.60;3.30;;;;;;;;;;5084232;28;20198;-70
2022/02/26 07:52:37;;;;;;;0.20;0.20;;;;;;;;;;5084916;28;20256;-72
2022/02/26 07:55:05;;;;;;;0.10;0.10;;;;;;;;;;5084662;28;20222;-72
2022/02/26 07:57:31;;;;;;;0.20;0.20;;;;;;;;;;5084531;28;20232;-72
2022/02/26 07:59:57;;;;;;;0.10;0.10;;;;;;;;;;5084307;28;20439;-72
2022/02/26 08:02:24;;;;;;;0.10;0.10;;;;;;;;;;5084571;28;20339;-73
2022/02/26 08:04:51;;;;;;;0.10;0.10;;;;;;;;;;5084519;28;20410;-72
2022/02/26 08:07:18;;;;;;;0.20;0.20;;;;;;;;;;5084512;28;20217;-71
2022/02/26 08:09:44;;;;;;;0.17;0.17;;;;;;;;;;5084157;28;20209;-72
2022/02/26 08:12:10;;;;;;;0.20;0.20;;;;;;;;;;5084356;28;20227;-70
2022/02/26 08:14:37;;;;;;;0.20;0.20;;;;;;;;;;5083425;28;20247;-72
2022/02/26 08:17:04;;;;;;;0.20;0.20;;;;;;;;;;5084198;28;20249;-72
2022/02/26 08:19:31;;;;;;;0.20;0.20;;;;;;;;;;5084244;28;20215;-72
2022/02/26 08:21:59;;;;;;;0.20;0.20;;;;;;;;;;5084096;28;20218;-72
2022/02/26 08:24:25;;;;;;;0.20;0.20;;;;;;;;;;5083486;28;20235;-73
2022/02/26 08:26:53;;;;;;;0.20;0.20;;;;;;;;;;5084067;28;20248;-71
2022/02/26 08:29:19;;;;;;;0.10;0.10;;;;;;;;;;5083598;28;20301;-72
2022/02/26 08:31:45;;;;;;;0.20;0.20;;;;;;;;;;5083734;28;20252;-72
2022/02/26 08:34:12;;;;;;;0.10;0.10;;;;;;;;;;5083780;28;20225;-73
2022/02/26 08:36:40;;;;;;;0.10;0.10;;;;;;;;;;5083872;28;20234;-72
2022/02/26 08:39:07;;;;;;;0.17;0.17;;;;;;;;;;5083748;28;20212;-72
2022/02/26 08:41:34;;;;;;;0.10;0.10;;;;;;;;;;5083573;28;20267;-71
2022/02/26 08:44:00;;;;;;;0.10;0.10;;;;;;;;;;5083636;28;20207;-70
2022/02/26 08:46:26;;;;;;;0.10;0.10;;;;;;;;;;5083571;28;20202;-72
2022/02/26 08:48:54;;;;;;;0.10;0.10;;;;;;;;;;5083533;28;20270;-72
2022/02/26 08:51:20;;;;;;;0.13;0.13;;;;;;;;;;5083466;28;20206;-71
2022/02/26 08:53:46;;;;;;;0.10;0.10;;;;;;;;;;5083236;28;20252;-71
2022/02/26 08:56:14;;;;;;;0.13;0.13;;;;;;;;;;5083414;28;20234;-72
2022/02/26 08:58:40;;;;;;;0.10;0.10;;;;;;;;;;5083013;28;20206;-71
2022/02/26 09:01:06;;;;;;;0.17;0.17;;;;;;;;;;5082806;28;20379;-70
2022/02/26 09:03:33;;;;;;;0.10;0.10;;;;;;;;;;5083209;28;20251;-71
2022/02/26 09:05:59;;;;;;;0.10;0.10;;;;;;;;;;5082699;28;20206;-71
2022/02/26 09:08:25;;;;;;;0.20;0.20;;;;;;;;;;5083232;28;20206;-71
2022/02/26 09:10:52;;;;;;;0.10;0.10;;;;;;;;;;5083093;28;20207;-68
2022/02/26 09:13:23;;;;;;;0.10;0.10;;;;;;;;;;5082680;28;20398;-72
2022/02/26 09:15:49;;;;;;;0.20;0.20;;;;;;;;;;5083061;28;20378;-71
2022/02/26 09:18:15;;;;;;;0.20;0.20;;;;;;;;;;5083161;28;20207;-70
2022/02/26 09:20:45;;;;;;;0.10;0.10;;;;;;;;;;5082986;28;20420;-72
2022/02/26 09:23:11;;;;;;;0.10;0.10;;;;;;;;;;5082985;28;20231;-71
2022/02/26 09:25:37;;;;;;;0.10;0.10;;;;;;;;;;5082062;28;20210;-72
2022/02/26 09:28:10;;;;;;;0.10;0.10;;;;;;;;;;5082601;28;20257;-71
2022/02/26 09:30:38;;;;;;;0.10;0.10;;;;;;;;;;5049527;28;20249;-66
2022/02/26 09:33:04;;;;;;;0.10;0.10;;;;;;;;;;5082961;28;20433;-67
2022/02/26 09:35:31;;;;;;;0.10;0.10;;;;;;;;;;5082487;28;20226;-65
2022/02/26 09:37:57;;;;;;;0.20;0.20;;;;;;;;;;5083050;28;20257;-66
2022/02/26 09:40:23;;;;;;;0.10;0.10;;;;;;;;;;5082883;28;20253;-66
2022/02/26 09:42:49;;;;;;;0.10;0.10;;;;;;;;;;5082886;28;20296;-61
2022/02/26 09:45:16;;;;;;;0.17;0.17;;;;;;;;;;5082304;28;20234;-70
2022/02/26 09:47:43;;;;;;;0.10;0.10;;;;;;;;;;5082765;28;20249;-72
2022/02/26 09:50:10;;;;;;;0.10;0.10;;;;;;;;;;5082328;28;20206;-71
2022/02/26 09:52:38;;;;;;;0.10;0.10;;;;;;;;;;5082757;28;20207;-70
2022/02/26 09:55:05;;;;;;;0.10;0.10;;;;;;;;;;5082548;28;20328;-71
2022/02/26 09:57:31;;;;;;;0.10;0.10;;;;;;;;;;5082572;28;20479;-70
2022/02/26 09:59:59;;;;;;;0.10;0.10;;;;;;;;;;5082456;28;20203;-71
2022/02/26 10:02:30;;;;;;;0.10;0.10;;;;;;;;;;5082667;28;20506;-70
2022/02/26 10:04:58;;;;;;;0.10;0.10;;;;;;;;;;5082411;28;20405;-70
2022/02/26 10:07:26;;;;;;;0.17;0.17;;;;;;;;;;5082390;28;20205;-71
2022/02/26 10:09:53;;;;;;;0.10;0.10;;;;;;;;;;5082439;28;20522;-70
2022/02/26 10:12:25;;;;;;;0.10;0.10;;;;;;;;;;5082377;28;20215;-71
2022/02/26 10:14:53;;;;;;;0.20;0.20;;;;;;;;;;5082004;28;20199;-70
2022/02/26 10:17:27;;;;;;;0.10;0.10;;;;;;;;;;5082566;28;20398;-72
2022/02/26 10:20:02;;;;;;;0.10;0.10;;;;;;;;;;5082454;28;20556;-71
2022/02/26 10:22:29;;;;;;;0.10;0.10;;;;;;;;;;5082288;28;20213;-72
2022/02/26 10:24:55;;;;;;;0.10;0.10;;;;;;;;;;5081936;28;20281;-72
2022/02/26 10:27:26;;;;;;;0.10;0.10;;;;;;;;;;5082293;28;20261;-71
2022/02/26 10:29:53;;;;;;;0.10;0.10;;;;;;;;;;5081900;28;20263;-71
2022/02/26 10:32:20;;;;;;;0.10;0.10;;;;;;;;;;5081997;28;20282;-72
2022/02/26 10:34:46;;;;;;;0.10;0.10;;;;;;;;;;5082180;28;20207;-72
2022/02/26 10:37:15;;;;;;;0.10;0.10;;;;;;;;;;5084263;28;20227;-71
2022/02/26 10:39:43;;;;;;;0.10;0.10;;;;;;;;;;5085989;28;20204;-71
2022/02/26 10:42:10;;;;;;;0.10;0.10;;;;;;;;;;5085846;28;20318;-71
2022/02/26 10:44:37;;;;;;;0.10;0.10;;;;;;;;;;5085556;28;20206;-71
2022/02/26 10:47:08;;;;;;;0.10;0.10;;;;;;;;;;5085768;28;20271;-71
2022/02/26 10:49:35;;;;;;;0.10;0.10;;;;;;;;;;5085916;28;20269;-70
2022/02/26 10:52:07;;;;;;;0.10;0.10;;;;;;;;;;5085751;28;20392;-71
2022/02/26 10:54:35;;;;;;;0.10;0.10;;;;;;;;;;5085315;28;20393;-70
2022/02/26 10:57:02;;;;;;;0.10;0.10;;;;;;;;;;5085394;28;20273;-71
2022/02/26 10:59:30;;;;;;;0.10;0.10;;;;;;;;;;5085130;28;20225;-70
2022/02/26 11:02:00;;;;;;;0.10;0.10;;;;;;;;;;5085648;28;20273;-70
2022/02/26 11:04:27;;;;;;;0.10;0.10;;;;;;;;;;5085372;28;20261;-71
2022/02/26 11:06:53;;;;;;;0.10;0.10;;;;;;;;;;5085116;28;20207;-72
2022/02/26 11:09:20;;;;;;;0.10;0.10;;;;;;;;;;5085189;28;20204;-71
2022/02/26 11:11:49;;;;;;;0.10;0.10;;;;;;;;;;5085245;28;20203;-71
2022/02/26 11:14:15;;;;;;;0.10;0.10;;;;;;;;;;5085086;28;20281;-70
2022/02/26 11:16:42;;;;;;;0.20;0.20;;;;;;;;;;5085204;28;20254;-70
2022/02/26 11:19:10;;;;;;;0.70;0.70;;;;;;;;;;5085540;28;20278;-71
2022/02/26 11:21:38;;;;;;;0.10;0.10;;;;;;;;;;5085613;28;20421;-72
2022/02/26 11:24:05;;;;;;;0.10;0.10;;;;;;;;;;5085067;28;20199;-71
2022/02/26 11:26:32;;;;;;;0.10;0.10;;;;;;;;;;5085618;28;20204;-71
2022/02/26 11:29:05;;;;;;;0.10;0.10;;;;;;;;;;5085533;28;20517;-71
2022/02/26 11:31:33;;;;;;;0.20;0.20;;;;;;;;;;5085061;28;20208;-70
2022/02/26 11:33:59;;;;;;;0.10;0.10;;;;;;;;;;5084971;28;20221;-72
2022/02/26 11:36:45;;;;;;;0.10;0.10;;;;;;;;;;5084850;28;20413;-71
2022/02/26 11:39:21;;;;;;;0.10;0.10;;;;;;;;;;5085235;28;20247;-70
2022/02/26 11:41:47;;;;;;;0.10;0.10;;;;;;;;;;5085174;28;20222;-71
2022/02/26 11:44:16;;;;;;;0.10;0.10;;;;;;;;;;5084849;28;20203;-70
2022/02/26 11:46:42;;;;;;;0.10;0.10;;;;;;;;;;5084822;28;20199;-70
2022/02/26 11:49:13;;;;;;;0.10;0.10;;;;;;;;;;5083876;28;20256;-69
2022/02/26 11:51:45;;;;;;;0.10;0.10;;;;;;;;;;5084943;28;20232;-71
2022/02/26 11:54:14;;;;;;;0.10;0.10;;;;;;;;;;5084707;28;20213;-70
2022/02/26 11:56:41;;;;;;;0.10;0.10;;;;;;;;;;5084478;28;20238;-70
2022/02/26 11:59:08;;;;;;;0.10;0.10;;;;;;;;;;5084376;28;20203;-70
2022/02/26 12:01:35;;;;;;;0.10;0.10;;;;;;;;;;5084685;28;20482;-70
2022/02/26 12:04:01;;;;;;;0.10;0.10;;;;;;;;;;5084619;28;20465;-71
2022/02/26 12:06:33;;;;;;;0.10;0.10;;;;;;;;;;5084538;28;20556;-71
2022/02/26 12:09:01;;;;;;;0.10;0.10;;;;;;;;;;5084336;28;20480;-70
2022/02/26 12:11:34;;;;;;;0.10;0.10;;;;;;;;;;5084383;28;20205;-70
2022/02/26 12:14:01;;;;;;;0.10;0.10;;;;;;;;;;5084519;28;20199;-71
2022/02/26 12:16:28;;;;;;;0.10;0.10;;;;;;;;;;5084317;28;20223;-71
2022/02/26 12:18:57;;;;;;;0.10;0.10;;;;;;;;;;5084168;28;20210;-69
2022/02/26 12:21:23;;;;;;;0.10;0.10;;;;;;;;;;5083883;28;20273;-71
2022/02/26 12:24:06;;;;;;;0.10;0.10;;;;;;;;;;5084195;28;20257;-70
2022/02/26 12:26:57;;;;;;;0.10;0.10;;;;;;;;;;5084232;28;20543;-72
2022/02/26 12:29:33;;;;;;;0.10;0.10;;;;;;;;;;5068367;28;20211;-70
2022/02/26 12:32:00;;;;;;;0.10;0.10;;;;;;;;;;5084262;28;20204;-71
2022/02/26 12:34:29;;;;;;;0.10;0.10;;;;;;;;;;5083856;28;20203;-71
2022/02/26 12:37:17;;;;;;;0.10;0.10;;;;;;;;;;5084055;28;20293;-69
2022/02/26 12:39:45;;;;;;;0.10;0.10;;;;;;;;;;5083790;28;20208;-70
2022/02/26 12:42:17;;;;;;;0.10;0.10;;;;;;;;;;5083768;28;20285;-70
2022/02/26 12:44:44;;;;;;;0.13;0.13;;;;;;;;;;5083891;28;20514;-71
2022/02/26 12:47:10;;;;;;;0.10;0.10;;;;;;;;;;5083442;28;20199;-70
2022/02/26 12:49:38;;;;;;;0.13;0.13;;;;;;;;;;5083723;28;20522;-73
2022/02/26 12:52:05;;;;;;;0.10;0.10;;;;;;;;;;5083435;28;20445;-70
2022/02/26 12:54:32;;;;;;;0.10;0.10;;;;;;;;;;5083424;28;20261;-69
2022/02/26 12:56:58;;;;;;;0.10;0.10;;;;;;;;;;5083237;28;20238;-70
2022/02/26 12:59:27;;;;;;;0.10;0.10;;;;;;;;;;5083292;28;20266;-70
2022/02/26 13:01:53;;;;;;;0.10;0.10;;;;;;;;;;5082959;28;20257;-69
2022/02/26 13:04:20;;;;;;;0.10;0.10;;;;;;;;;;5083173;28;20204;-71
2022/02/26 13:06:51;;;;;;;0.10;0.10;;;;;;;;;;5083309;28;20244;-70
2022/02/26 13:09:22;;;;;;;0.10;0.10;;;;;;;;;;5083322;28;20229;-70
2022/02/26 13:11:49;;;;;;;0.10;0.10;;;;;;;;;;5083122;28;20203;-69
2022/02/26 13:14:16;;;;;;;0.10;0.10;;;;;;;;;;5083080;28;20203;-65
2022/02/26 13:16:52;;;;;;;0.10;0.10;;;;;;;;;;5083122;28;20228;-66
2022/02/26 13:19:18;;;;;;;0.10;0.10;;;;;;;;;;5083126;28;20200;-67
2022/02/26 13:21:45;;;;;;;0.10;0.10;;;;;;;;;;5082997;28;20395;-66
2022/02/26 13:24:12;;;;;;;0.10;0.10;;;;;;;;;;5082910;28;20207;-65
2022/02/26 13:26:40;;;;;;;0.10;0.10;;;;;;;;;;5085760;28;20243;-67
2022/02/26 13:29:13;;;;;;;0.10;0.10;;;;;;;;;;5083002;28;20499;-68
2022/02/26 13:31:41;;;;;;;0.10;0.10;;;;;;;;;;5081514;28;20226;-66
2022/02/26 13:34:14;;;;;;;0.10;0.10;;;;;;;;;;5082984;28;20253;-66
2022/02/26 13:36:41;;;;;;;0.10;0.10;;;;;;;;;;5082709;28;20230;-66
2022/02/26 13:39:07;;;;;;;0.10;0.10;;;;;;;;;;5082322;28;20211;-65
2022/02/26 13:41:38;;;;;;;0.10;0.10;;;;;;;;;;5082421;28;20299;-68
2022/02/26 13:44:08;;;;;;;0.10;0.10;;;;;;;;;;5082863;28;20193;-66
2022/02/26 13:46:36;;;;;;;0.10;0.10;;;;;;;;;;5082641;28;20207;-67
2022/02/26 13:49:02;;;;;;;0.10;0.10;;;;;;;;;;5082658;28;20434;-67
2022/02/26 13:51:34;;;;;;;0.20;0.20;;;;;;;;;;5082783;28;20228;-66
2022/02/26 13:54:00;;;;;;;0.20;0.20;;;;;;;;;;5082528;28;20199;-66
2022/02/26 13:56:27;;;;;;;0.10;0.10;;;;;;;;;;5082126;28;20208;-66
2022/02/26 13:58:55;;;;;;;0.10;0.10;;;;;;;;;;5082134;28;20499;-66
2022/02/26 14:01:21;;;;;;;0.10;0.10;;;;;;;;;;5082371;28;20261;-66
2022/02/26 14:03:48;;;;;;;0.10;0.10;;;;;;;;;;5082445;28;20253;-65
2022/02/26 14:06:14;;;;;;;0.10;0.10;;;;;;;;;;5082350;28;20514;-65
2022/02/26 14:08:41;;;;;;;0.10;0.10;;;;;;;;;;5082681;28;20498;-67
2022/02/26 14:11:08;;;;;;;0.10;0.10;;;;;;;;;;5082954;28;20204;-67
2022/02/26 14:13:34;;;;;;;0.10;0.10;;;;;;;;;;5086481;28;20203;-66
2022/02/26 14:16:07;;;;;;;0.10;0.10;;;;;;;;;;5086312;28;20509;-66
2022/02/26 14:18:34;;;;;;;0.10;0.10;;;;;;;;;;5086697;28;20287;-66
2022/02/26 14:21:01;;;;;;;0.10;0.10;;;;;;;;;;5086479;28;20210;-66
2022/02/26 14:23:27;;;;;;;0.10;0.10;;;;;;;;;;5086526;28;20509;-66
2022/02/26 14:25:57;;;;;;;0.10;0.10;;;;;;;;;;5086006;28;20322;-67
2022/02/26 14:28:24;;;;;;;0.10;0.10;;;;;;;;;;5086433;28;20535;-66
2022/02/26 14:30:53;;;;;;;0.10;0.10;;;;;;;;;;5086343;28;20211;-67
2022/02/26 14:33:21;;;;;;;0.10;0.10;;;;;;;;;;5086496;28;20211;-66
2022/02/26 14:35:50;;;;;;;0.10;0.10;;;;;;;;;;5086198;28;20479;-67
2022/02/26 14:38:17;;;;;;;0.10;0.10;;;;;;;;;;5085647;28;20277;-66
2022/02/26 14:40:43;;;;;;;0.10;0.10;;;;;;;;;;5086240;28;20437;-67
2022/02/26 14:43:10;;;;;;;0.10;0.10;;;;;;;;;;5086256;28;20265;-68
2022/02/26 14:45:36;;;;;;;0.10;0.10;;;;;;;;;;5085679;28;20251;-67